createdAt,value
2023-05-01T00:00:48.202Z,13.85
2023-05-01T00:03:18.263Z,15.63
2023-05-01T00:05:48.527Z,14.82
2023-05-01T00:08:20.716Z,18.02
2023-05-01T00:10:50.318Z,18.05
2023-05-01T00:13:22.169Z,17.95
2023-05-01T00:15:51.826Z,18.13
2023-05-01T00:18:21.749Z,19.08
2023-05-01T00:20:51.629Z,18.25
2023-05-01T00:23:23.910Z,22.45
2023-05-01T00:25:53.426Z,20.08
2023-05-01T00:28:22.958Z,18.17
2023-05-01T00:30:52.486Z,17.60
2023-05-01T00:33:22.103Z,16.40
2023-05-01T00:35:51.675Z,16.08
2023-05-01T00:38:24.362Z,16.60
2023-05-01T00:40:53.871Z,14.35
2023-05-01T00:43:23.703Z,16.15
2023-05-01T00:45:53.605Z,21.65
2023-05-01T00:48:23.472Z,18.52
2023-05-01T00:50:53.141Z,19.83
2023-05-01T00:53:26.874Z,16.38
2023-05-01T00:55:57.596Z,14.80
2023-05-01T00:58:27.196Z,14.15
2023-05-01T01:00:57.467Z,14.88
2023-05-01T01:03:28.048Z,20.00
2023-05-01T01:06:01.992Z,16.73
2023-05-01T01:08:41.474Z,15.00
2023-05-01T01:11:18.078Z,15.35
2023-05-01T01:13:55.628Z,16.42
2023-05-01T01:16:34.742Z,16.23
2023-05-01T01:19:19.391Z,16.02
2023-05-01T01:21:52.794Z,17.85
2023-05-01T01:24:39.323Z,16.00
2023-05-01T01:27:38.328Z,17.63
2023-05-01T01:30:53.207Z,16.98
2023-05-01T01:33:48.526Z,14.98
2023-05-01T01:36:25.335Z,16.17
2023-05-01T01:39:01.083Z,15.52
2023-05-01T01:41:36.304Z,15.57
2023-05-01T01:44:12.218Z,13.80
2023-05-01T01:46:45.597Z,15.27
2023-05-01T01:49:22.242Z,14.82
2023-05-01T01:51:56.196Z,14.43
2023-05-01T01:54:30.838Z,14.35
2023-05-01T01:57:04.300Z,15.35
2023-05-01T01:59:36.467Z,16.42
2023-05-01T02:02:07.726Z,16.05
2023-05-01T02:04:39.155Z,15.57
2023-05-01T02:07:14.462Z,15.32
2023-05-01T02:09:44.907Z,14.50
2023-05-01T02:12:17.126Z,15.55
2023-05-01T02:14:47.937Z,15.00
2023-05-01T02:17:18.614Z,15.10
2023-05-01T02:19:48.889Z,14.88
2023-05-01T02:22:23.360Z,14.77
2023-05-01T02:24:52.903Z,15.48
2023-05-01T02:27:23.938Z,16.02
2023-05-01T02:29:55.197Z,16.90
2023-05-01T02:32:25.013Z,16.25
2023-05-01T02:34:54.794Z,17.42
2023-05-01T02:37:27.071Z,17.25
2023-05-01T02:39:57.143Z,17.33
2023-05-01T02:42:28.714Z,18.35
2023-05-01T02:45:03.170Z,16.73
2023-05-01T02:47:35.342Z,16.15
2023-05-01T02:50:07.056Z,18.48
2023-05-01T02:52:40.162Z,20.05
2023-05-01T02:55:11.266Z,17.27
2023-05-01T02:57:41.525Z,15.80
2023-05-01T03:00:14.183Z,14.48
2023-05-01T03:02:44.031Z,15.75
2023-05-01T03:05:13.911Z,15.23
2023-05-01T03:07:46.398Z,15.60
2023-05-01T03:10:16.577Z,14.70
2023-05-01T03:12:46.127Z,16.02
2023-05-01T03:15:15.749Z,16.48
2023-05-01T03:17:45.342Z,15.32
2023-05-01T03:20:16.299Z,14.25
2023-05-01T03:22:48.380Z,15.27
2023-05-01T03:25:18.204Z,15.57
2023-05-01T03:27:47.866Z,15.88
2023-05-01T03:30:17.851Z,15.40
2023-05-01T03:32:47.393Z,16.83
2023-05-01T03:35:17.060Z,15.73
2023-05-01T03:37:49.390Z,15.85
2023-05-01T03:40:19.580Z,14.30
2023-05-01T03:42:49.124Z,15.23
2023-05-01T03:45:18.916Z,15.00
2023-05-01T03:47:48.478Z,13.60
2023-05-01T03:50:18.062Z,13.93
2023-05-01T03:52:50.198Z,12.13
2023-05-01T03:55:19.876Z,11.65
2023-05-01T03:57:50.080Z,10.93
2023-05-01T04:00:19.791Z,11.20
2023-05-01T04:02:49.689Z,10.80
2023-05-01T04:05:19.487Z,11.88
2023-05-01T04:07:51.616Z,11.77
2023-05-01T04:10:21.264Z,11.75
2023-05-01T04:12:50.777Z,11.82
2023-05-01T04:15:20.651Z,11.10
2023-05-01T04:17:50.399Z,10.55
2023-05-01T04:20:20.442Z,10.63
2023-05-01T04:22:52.791Z,10.55
2023-05-01T04:25:22.314Z,9.52
2023-05-01T04:27:51.867Z,9.73
2023-05-01T04:30:21.634Z,9.77
2023-05-01T04:32:51.249Z,9.70
2023-05-01T04:35:20.940Z,9.05
2023-05-01T04:37:53.067Z,9.57
2023-05-01T04:40:22.687Z,9.25
2023-05-01T04:42:52.214Z,10.20
2023-05-01T04:45:21.744Z,9.10
2023-05-01T04:47:51.314Z,8.65
2023-05-01T04:50:20.886Z,9.23
2023-05-01T04:52:53.466Z,8.55
2023-05-01T04:55:23.046Z,9.68
2023-05-01T04:57:52.578Z,9.10
2023-05-01T05:00:22.301Z,8.95
2023-05-01T05:02:51.963Z,9.20
2023-05-01T05:05:21.589Z,8.55
2023-05-01T05:07:53.707Z,9.65
2023-05-01T05:10:23.592Z,9.55
2023-05-01T05:12:53.146Z,9.93
2023-05-01T05:15:22.805Z,9.35
2023-05-01T05:17:53.914Z,9.57
2023-05-01T05:20:24.647Z,9.15
2023-05-01T05:22:56.760Z,9.73
2023-05-01T05:25:27.219Z,9.60
2023-05-01T05:27:56.754Z,9.43
2023-05-01T05:30:26.262Z,9.13
2023-05-01T05:32:55.885Z,8.82
2023-05-01T05:35:25.510Z,8.38
2023-05-01T05:37:57.619Z,9.80
2023-05-01T05:40:27.227Z,9.18
2023-05-01T05:42:56.766Z,9.23
2023-05-01T05:45:26.273Z,9.23
2023-05-01T05:47:55.930Z,8.45
2023-05-01T05:50:25.478Z,8.68
2023-05-01T05:52:57.553Z,8.30
2023-05-01T05:55:28.250Z,8.07
2023-05-01T05:57:57.826Z,8.25
2023-05-01T06:00:27.493Z,8.07
2023-05-01T06:02:57.221Z,7.55
2023-05-01T06:05:27.008Z,8.07
2023-05-01T06:07:59.857Z,8.02
2023-05-01T06:10:29.415Z,8.02
2023-05-01T06:13:03.168Z,7.95
2023-05-01T06:15:43.965Z,6.80
2023-05-01T06:18:14.924Z,7.78
2023-05-01T06:20:44.574Z,6.95
2023-05-01T06:23:16.704Z,6.80
2023-05-01T06:25:46.418Z,7.60
2023-05-01T06:28:16.177Z,7.30
2023-05-01T06:30:45.785Z,7.45
2023-05-01T06:33:15.387Z,6.47
2023-05-01T06:35:44.948Z,6.25
2023-05-01T06:38:17.055Z,7.32
2023-05-01T06:40:47.668Z,7.40
2023-05-01T06:43:17.322Z,6.50
2023-05-01T06:45:46.878Z,5.35
2023-05-01T06:48:16.414Z,6.55
2023-05-01T06:50:45.943Z,6.75
2023-05-01T06:53:18.081Z,6.00
2023-05-01T06:55:47.694Z,6.80
2023-05-01T07:00:52.095Z,5.03
2023-05-01T07:03:21.921Z,4.82
2023-05-01T07:05:51.579Z,4.55
2023-05-01T07:08:24.454Z,4.72
2023-05-01T07:10:54.469Z,4.40
2023-05-01T07:13:24.075Z,4.93
2023-05-01T07:15:54.740Z,6.07
2023-05-01T07:18:24.387Z,4.57
2023-05-01T07:20:53.984Z,6.20
2023-05-01T07:23:26.259Z,5.90
2023-05-01T07:25:56.181Z,5.93
2023-05-01T07:28:25.776Z,5.72
2023-05-01T07:30:55.473Z,5.32
2023-05-01T07:33:26.699Z,4.18
2023-05-01T07:35:56.656Z,4.07
2023-05-01T07:38:29.155Z,4.72
2023-05-01T07:40:58.887Z,4.60
2023-05-01T07:43:28.454Z,4.60
2023-05-01T07:46:00.556Z,4.97
2023-05-01T07:48:32.004Z,4.53
2023-05-01T07:51:05.287Z,6.03
2023-05-01T07:53:37.522Z,4.50
2023-05-01T07:56:10.404Z,3.58
2023-05-01T07:58:41.693Z,5.40
2023-05-01T08:01:11.966Z,5.07
2023-05-01T08:03:42.298Z,4.93
2023-05-01T08:06:12.029Z,3.83
2023-05-01T08:08:44.186Z,4.20
2023-05-01T08:11:14.926Z,4.28
2023-05-01T08:13:44.523Z,4.22
2023-05-01T08:16:14.337Z,4.60
2023-05-01T08:18:43.976Z,3.97
2023-05-01T08:21:13.652Z,4.05
2023-05-01T08:23:45.750Z,6.05
2023-05-01T08:26:15.280Z,4.88
2023-05-01T08:28:45.126Z,4.50
2023-05-01T08:31:14.708Z,4.10
2023-05-01T08:33:44.764Z,3.25
2023-05-01T08:36:14.604Z,3.80
2023-05-01T08:38:46.792Z,4.20
2023-05-01T08:41:19.485Z,4.28
2023-05-01T08:43:49.233Z,4.00
2023-05-01T08:46:26.184Z,4.05
2023-05-01T08:49:00.746Z,3.70
2023-05-01T08:51:33.884Z,3.38
2023-05-01T08:54:08.487Z,4.25
2023-05-01T08:56:39.090Z,3.97
2023-05-01T08:59:12.391Z,4.57
2023-05-01T09:01:43.882Z,4.45
2023-05-01T09:04:14.772Z,4.57
2023-05-01T09:06:45.285Z,4.72
2023-05-01T09:09:17.456Z,4.70
2023-05-01T09:11:47.714Z,4.60
2023-05-01T09:14:17.473Z,4.35
2023-05-01T09:16:47.261Z,4.60
2023-05-01T09:19:17.035Z,4.65
2023-05-01T09:21:46.642Z,4.65
2023-05-01T09:24:18.808Z,4.18
2023-05-01T09:26:48.972Z,4.15
2023-05-01T09:29:40.448Z,4.78
2023-05-01T09:32:17.940Z,4.60
2023-05-01T09:34:47.843Z,3.53
2023-05-01T09:37:32.306Z,4.55
2023-05-01T09:40:12.988Z,3.05
2023-05-01T09:42:43.811Z,4.78
2023-05-01T09:45:16.878Z,4.07
2023-05-01T09:47:47.029Z,3.47
2023-05-01T09:50:33.285Z,3.97
2023-05-01T09:55:38.853Z,4.00
2023-05-01T09:58:08.429Z,3.88
2023-05-01T10:00:51.593Z,4.00
2023-05-01T10:03:21.450Z,3.05
2023-05-01T10:05:51.095Z,3.25
2023-05-01T10:08:20.841Z,4.05
2023-05-01T10:11:02.914Z,4.28
2023-05-01T10:13:32.565Z,3.80
2023-05-01T10:16:07.528Z,4.60
2023-05-01T10:18:38.127Z,3.10
2023-05-01T10:21:10.150Z,3.92
2023-05-01T10:23:39.735Z,3.03
2023-05-01T10:26:16.834Z,4.20
2023-05-01T10:28:47.560Z,3.70
2023-05-01T10:31:17.915Z,4.20
2023-05-01T10:33:49.147Z,4.50
2023-05-01T10:36:23.622Z,2.80
2023-05-01T10:38:53.260Z,3.38
2023-05-01T10:41:52.787Z,3.47
2023-05-01T10:44:29.160Z,4.40
2023-05-01T10:46:58.745Z,6.35
2023-05-01T10:49:28.316Z,4.72
2023-05-01T10:52:03.820Z,3.92
2023-05-01T10:54:34.119Z,3.67
2023-05-01T10:57:04.933Z,3.95
2023-05-01T11:00:05.100Z,3.70
2023-05-01T11:02:37.243Z,2.75
2023-05-01T11:05:07.620Z,3.38
2023-05-01T11:07:37.463Z,3.00
2023-05-01T11:10:28.849Z,3.30
2023-05-01T11:12:58.519Z,3.13
2023-05-01T11:15:33.933Z,3.13
2023-05-01T11:18:07.384Z,3.17
2023-05-01T11:20:52.030Z,3.22
2023-05-01T11:23:26.692Z,2.08
2023-05-01T11:26:09.845Z,2.95
2023-05-01T11:28:41.283Z,3.35
2023-05-01T11:31:11.717Z,2.90
2023-05-01T11:33:43.909Z,3.17
2023-05-01T11:36:14.348Z,2.78
2023-05-01T11:38:53.081Z,3.38
2023-05-01T11:41:24.032Z,3.47
2023-05-01T11:43:54.422Z,3.70
2023-05-01T11:46:28.024Z,3.90
2023-05-01T11:49:01.600Z,3.35
2023-05-01T11:51:32.127Z,2.67
2023-05-01T11:54:02.576Z,3.63
2023-05-01T11:56:33.075Z,3.33
2023-05-01T11:59:12.578Z,3.03
2023-05-01T12:01:44.595Z,2.95
2023-05-01T12:04:29.658Z,4.10
2023-05-01T12:07:01.494Z,3.03
2023-05-01T12:09:32.070Z,4.55
2023-05-01T12:12:03.578Z,2.85
2023-05-01T12:14:33.302Z,2.97
2023-05-01T12:17:04.231Z,3.80
2023-05-01T12:19:37.073Z,3.05
2023-05-01T12:22:10.233Z,3.28
2023-05-01T12:24:40.241Z,3.53
2023-05-01T12:27:10.730Z,3.35
2023-05-01T12:29:44.921Z,3.47
2023-05-01T12:32:14.526Z,3.20
2023-05-01T12:34:47.035Z,3.35
2023-05-01T12:37:16.772Z,2.95
2023-05-01T12:39:47.338Z,3.10
2023-05-01T12:42:18.214Z,3.83
2023-05-01T12:44:47.790Z,3.15
2023-05-01T12:47:17.694Z,3.25
2023-05-01T12:49:49.914Z,3.72
2023-05-01T12:52:20.025Z,3.53
2023-05-01T12:54:51.849Z,3.88
2023-05-01T12:57:21.868Z,4.55
2023-05-01T13:00:01.240Z,2.90
2023-05-01T13:02:35.402Z,3.65
2023-05-01T13:05:14.912Z,3.25
2023-05-01T13:07:52.281Z,2.38
2023-05-01T13:10:34.095Z,3.78
2023-05-01T13:13:04.224Z,3.80
2023-05-01T13:15:33.806Z,3.30
2023-05-01T13:20:46.124Z,3.90
2023-05-01T13:23:15.817Z,3.35
2023-05-01T13:25:46.501Z,3.22
2023-05-01T13:28:21.626Z,3.17
2023-05-01T13:30:51.189Z,3.55
2023-05-01T13:33:20.761Z,4.13
2023-05-01T13:35:53.007Z,3.67
2023-05-01T13:38:24.807Z,4.50
2023-05-01T13:40:54.405Z,3.83
2023-05-01T13:43:24.669Z,3.40
2023-05-01T13:45:54.446Z,4.10
2023-05-01T13:48:24.278Z,3.78
2023-05-01T13:50:56.369Z,3.65
2023-05-01T13:53:25.893Z,3.45
2023-05-01T13:55:55.585Z,4.10
2023-05-01T13:58:27.927Z,3.05
2023-05-01T14:00:57.571Z,3.67
2023-05-01T14:03:27.430Z,3.33
2023-05-01T14:05:59.747Z,4.43
2023-05-01T14:08:31.537Z,4.10
2023-05-01T14:11:01.535Z,3.80
2023-05-01T14:13:31.055Z,3.85
2023-05-01T14:16:00.741Z,3.28
2023-05-01T14:18:30.569Z,2.45
2023-05-01T14:21:02.730Z,3.92
2023-05-01T14:23:35.140Z,3.92
2023-05-01T14:26:05.138Z,3.15
2023-05-01T14:28:34.696Z,3.50
2023-05-01T14:31:04.247Z,2.83
2023-05-01T14:33:33.799Z,3.55
2023-05-01T14:36:06.096Z,3.50
2023-05-01T14:38:39.365Z,3.17
2023-05-01T14:41:11.264Z,2.72
2023-05-01T14:43:44.619Z,4.03
2023-05-01T14:46:16.192Z,3.80
2023-05-01T14:48:45.787Z,3.80
2023-05-01T14:51:22.402Z,3.42
2023-05-01T14:53:52.054Z,3.20
2023-05-01T14:56:21.838Z,3.42
2023-05-01T14:58:52.467Z,3.25
2023-05-01T15:01:22.173Z,3.65
2023-05-01T15:03:52.016Z,3.13
2023-05-01T15:06:24.531Z,2.55
2023-05-01T15:08:54.138Z,3.65
2023-05-01T15:11:23.668Z,3.55
2023-05-01T15:13:53.231Z,2.50
2023-05-01T15:16:22.770Z,3.50
2023-05-01T15:18:52.317Z,3.10
2023-05-01T15:21:24.571Z,3.33
2023-05-01T15:23:54.161Z,3.20
2023-05-01T15:26:24.617Z,2.65
2023-05-01T15:28:54.371Z,3.05
2023-05-01T15:31:24.023Z,2.58
2023-05-01T15:33:53.582Z,2.85
2023-05-01T15:36:25.759Z,3.50
2023-05-01T15:38:55.555Z,3.08
2023-05-01T15:41:25.121Z,3.05
2023-05-01T15:43:54.661Z,2.95
2023-05-01T15:46:26.931Z,2.90
2023-05-01T15:48:56.537Z,2.83
2023-05-01T15:51:28.699Z,2.92
2023-05-01T15:53:59.096Z,3.38
2023-05-01T15:56:28.750Z,2.80
2023-05-01T15:58:58.263Z,2.28
2023-05-01T16:01:27.883Z,2.83
2023-05-01T16:03:57.834Z,3.05
2023-05-01T16:06:31.349Z,2.80
2023-05-01T16:09:01.236Z,2.80
2023-05-01T16:11:30.828Z,2.92
2023-05-01T16:14:00.559Z,3.08
2023-05-01T16:16:31.757Z,2.53
2023-05-01T16:19:02.483Z,3.20
2023-05-01T16:21:34.679Z,2.90
2023-05-01T16:24:05.316Z,3.03
2023-05-01T16:26:36.065Z,3.22
2023-05-01T16:29:08.613Z,3.30
2023-05-01T16:31:42.009Z,3.17
2023-05-01T16:34:14.322Z,3.13
2023-05-01T16:36:47.508Z,3.42
2023-05-01T16:39:22.412Z,3.28
2023-05-01T16:41:53.377Z,3.37
2023-05-01T16:44:24.903Z,3.65
2023-05-01T16:46:56.451Z,3.38
2023-05-01T16:49:27.761Z,3.40
2023-05-01T16:52:03.845Z,3.28
2023-05-01T16:54:36.303Z,2.85
2023-05-01T16:57:06.283Z,3.33
2023-05-01T16:59:37.139Z,3.50
2023-05-01T17:02:07.006Z,3.67
2023-05-01T17:04:36.669Z,3.78
2023-05-01T17:07:12.852Z,3.70
2023-05-01T17:09:42.376Z,3.72
2023-05-01T17:12:11.976Z,3.67
2023-05-01T17:14:41.564Z,3.22
2023-05-01T17:17:11.138Z,4.20
2023-05-01T17:19:41.433Z,3.50
2023-05-01T17:22:14.595Z,3.33
2023-05-01T17:24:44.125Z,3.70
2023-05-01T17:27:13.862Z,4.15
2023-05-01T17:29:44.108Z,3.63
2023-05-01T17:32:18.175Z,3.70
2023-05-01T17:34:59.290Z,3.88
2023-05-01T17:37:31.837Z,3.85
2023-05-01T17:40:02.081Z,3.60
2023-05-01T17:42:31.972Z,3.90
2023-05-01T17:45:01.507Z,3.75
2023-05-01T17:47:31.098Z,4.32
2023-05-01T17:50:01.040Z,4.20
2023-05-01T17:52:33.394Z,4.15
2023-05-01T17:55:02.950Z,4.43
2023-05-01T17:57:32.560Z,4.30
2023-05-01T18:00:02.657Z,4.57
2023-05-01T18:02:32.722Z,4.65
2023-05-01T18:05:02.279Z,4.57
2023-05-01T18:07:34.873Z,4.70
2023-05-01T18:10:04.491Z,5.40
2023-05-01T18:12:34.048Z,4.75
2023-05-01T18:15:03.561Z,4.88
2023-05-01T18:17:33.218Z,4.78
2023-05-01T18:20:02.942Z,4.45
2023-05-01T18:22:35.057Z,4.68
2023-05-01T18:25:04.589Z,4.90
2023-05-01T18:27:34.127Z,4.68
2023-05-01T18:30:03.717Z,4.85
2023-05-01T18:32:46.167Z,5.20
2023-05-01T18:35:17.886Z,5.10
2023-05-01T18:37:51.016Z,5.18
2023-05-01T18:40:20.546Z,5.07
2023-05-01T18:42:50.066Z,5.10
2023-05-01T18:45:19.794Z,4.78
2023-05-01T18:47:49.429Z,5.55
2023-05-01T18:50:22.841Z,5.50
2023-05-01T18:52:55.000Z,5.50
2023-05-01T18:55:25.282Z,4.80
2023-05-01T18:57:55.457Z,5.20
2023-05-01T19:00:26.162Z,4.57
2023-05-01T19:02:55.965Z,4.13
2023-05-01T19:05:25.697Z,4.05
2023-05-01T19:08:01.951Z,4.18
2023-05-01T19:10:31.679Z,5.20
2023-05-01T19:13:01.399Z,5.13
2023-05-01T19:15:30.934Z,5.07
2023-05-01T19:18:00.535Z,4.22
2023-05-01T19:20:30.134Z,5.40
2023-05-01T19:23:02.284Z,4.78
2023-05-01T19:25:33.740Z,5.38
2023-05-01T19:28:03.904Z,5.43
2023-05-01T19:30:33.727Z,5.03
2023-05-01T19:33:04.181Z,4.50
2023-05-01T19:35:34.334Z,4.38
2023-05-01T19:38:06.459Z,4.72
2023-05-01T19:40:36.344Z,3.45
2023-05-01T19:43:05.976Z,4.15
2023-05-01T19:45:35.707Z,4.82
2023-05-01T19:48:06.298Z,5.13
2023-05-01T19:50:35.904Z,5.72
2023-05-01T19:53:08.073Z,4.90
2023-05-01T19:55:37.653Z,6.20
2023-05-01T19:58:07.180Z,4.65
2023-05-01T20:00:36.744Z,4.68
2023-05-01T20:03:06.707Z,4.43
2023-05-01T20:05:37.426Z,5.72
2023-05-01T20:08:09.620Z,5.10
2023-05-01T20:10:39.179Z,5.45
2023-05-01T20:13:10.949Z,5.75
2023-05-01T20:15:41.276Z,5.40
2023-05-01T20:18:13.345Z,5.53
2023-05-01T20:20:42.946Z,6.05
2023-05-01T20:23:16.929Z,4.55
2023-05-01T20:25:46.652Z,4.40
2023-05-01T20:28:16.670Z,4.50
2023-05-01T20:30:48.910Z,4.75
2023-05-01T20:33:18.586Z,5.07
2023-05-01T20:35:48.235Z,3.97
2023-05-01T20:38:21.789Z,5.20
2023-05-01T20:40:51.326Z,4.93
2023-05-01T20:43:21.221Z,5.20
2023-05-01T20:45:50.798Z,5.15
2023-05-01T20:48:20.389Z,5.05
2023-05-01T20:50:50.021Z,4.70
2023-05-01T20:53:22.264Z,5.28
2023-05-01T20:55:52.363Z,5.60
2023-05-01T20:58:21.942Z,4.95
2023-05-01T21:00:51.501Z,5.05
2023-05-01T21:03:21.161Z,4.32
2023-05-01T21:05:50.948Z,3.25
2023-05-01T21:08:23.072Z,3.70
2023-05-01T21:10:52.617Z,4.40
2023-05-01T21:13:23.812Z,4.53
2023-05-01T21:15:53.886Z,3.65
2023-05-01T21:18:24.154Z,4.18
2023-05-01T21:20:53.751Z,4.13
2023-05-01T21:23:28.840Z,5.05
2023-05-01T21:25:58.452Z,4.53
2023-05-01T21:28:28.170Z,2.95
2023-05-01T21:30:57.816Z,3.90
2023-05-01T21:33:28.580Z,3.78
2023-05-01T21:35:58.154Z,4.50
2023-05-01T21:38:31.365Z,3.60
2023-05-01T21:41:00.906Z,2.92
2023-05-01T21:43:30.654Z,3.78
2023-05-01T21:46:00.429Z,4.50
2023-05-01T21:48:33.385Z,4.88
2023-05-01T21:51:03.510Z,4.70
2023-05-01T21:53:35.921Z,4.97
2023-05-01T21:56:06.013Z,5.78
2023-05-01T21:58:35.555Z,3.67
2023-05-01T22:01:05.106Z,5.03
2023-05-01T22:03:34.831Z,5.68
2023-05-01T22:06:05.088Z,5.43
2023-05-01T22:08:37.366Z,5.57
2023-05-01T22:11:08.444Z,4.68
2023-05-01T22:16:08.666Z,6.93
2023-05-01T22:18:38.213Z,5.85
2023-05-01T22:21:08.135Z,4.90
2023-05-01T22:23:40.217Z,6.22
2023-05-01T22:26:09.724Z,7.13
2023-05-01T22:28:39.269Z,5.57
2023-05-01T22:31:08.793Z,5.10
2023-05-01T22:33:38.304Z,5.40
2023-05-01T22:36:08.475Z,4.93
2023-05-01T22:38:40.814Z,6.43
2023-05-01T22:41:10.339Z,5.40
2023-05-01T22:43:39.892Z,5.75
2023-05-01T22:46:09.456Z,6.30
2023-05-01T22:48:39.018Z,6.10
2023-05-01T22:51:08.736Z,7.13
2023-05-01T22:53:41.499Z,4.68
2023-05-01T22:56:11.078Z,3.70
2023-05-01T22:58:40.647Z,5.03
2023-05-01T23:01:10.192Z,4.78
2023-05-01T23:03:39.824Z,6.38
2023-05-01T23:06:09.547Z,4.57
2023-05-01T23:08:41.689Z,4.70
2023-05-01T23:11:13.464Z,4.43
2023-05-01T23:13:46.464Z,5.72
2023-05-01T23:16:18.171Z,5.22
2023-05-01T23:18:47.783Z,5.30
2023-05-01T23:21:20.363Z,4.13
2023-05-01T23:23:52.550Z,4.00
2023-05-01T23:26:28.908Z,5.18
2023-05-01T23:29:00.183Z,6.85
2023-05-01T23:31:30.342Z,4.97
2023-05-01T23:33:59.980Z,4.40
2023-05-01T23:36:29.529Z,4.72
2023-05-01T23:39:01.741Z,4.45
2023-05-01T23:41:31.456Z,5.47
2023-05-01T23:44:01.010Z,3.83
2023-05-01T23:46:30.676Z,5.68
2023-05-01T23:49:00.267Z,5.18
2023-05-01T23:51:31.611Z,6.68
2023-05-01T23:54:04.472Z,6.55
2023-05-01T23:56:34.037Z,4.72
2023-05-01T23:59:03.632Z,4.07
